Time;durP1;ratioP1;P1;durP2;ratioP2;P2;SDS_P1;SDS_P2;PMS_P1;PMS_P2;Temp;Humidity;BMP_temperature;BMP_pressure;BME280_temperature;BME280_humidity;BME280_pressure;Samples;Min_cycle;Max_cycle;Signal;HPM_P1;HPM_P2
2022/07/29 00:00:09;;;;;;;2.35;2.22;;;22.60;95.60;;;;;;5034218;28;20210;-90
2022/07/29 00:02:39;;;;;;;2.92;2.72;;;22.60;96.00;;;;;;5033584;28;20329;-90
2022/07/29 00:05:09;;;;;;;2.97;2.72;;;22.60;95.80;;;;;;5034495;28;20265;-90
2022/07/29 00:07:37;;;;;;;2.50;2.38;;;22.60;96.50;;;;;;5033707;28;20245;-90
2022/07/29 00:10:06;;;;;;;3.85;3.00;;;22.60;95.60;;;;;;5033808;28;20294;-90
2022/07/29 00:12:35;;;;;;;3.65;2.80;;;22.50;96.30;;;;;;5032610;28;20362;-89
2022/07/29 00:15:05;;;;;;;4.10;3.17;;;22.50;95.80;;;;;;5033495;28;20233;-89
2022/07/29 00:17:34;;;;;;;3.35;3.05;;;22.40;95.40;;;;;;5033735;28;20230;-90
2022/07/29 00:20:05;;;;;;;3.70;3.33;;;22.40;96.40;;;;;;5033853;28;20306;-90
2022/07/29 00:22:33;;;;;;;3.55;2.67;;;22.40;96.70;;;;;;5033001;28;20242;-90
2022/07/29 00:25:01;;;;;;;5.43;3.13;;;22.40;97.10;;;;;;5033311;28;20245;-90
2022/07/29 00:27:30;;;;;;;3.30;3.00;;;22.40;96.10;;;;;;5032478;28;20257;-89
2022/07/29 00:29:58;;;;;;;3.83;2.65;;;22.40;96.60;;;;;;5032925;28;20278;-82
2022/07/29 00:32:26;;;;;;;3.65;3.10;;;22.40;96.80;;;;;;5033356;28;20310;-83
2022/07/29 00:37:42;;;;;;;3.60;3.08;;;22.50;97.10;;;;;;5014012;28;20253;-82
2022/07/29 00:40:11;;;;;;;2.95;2.75;;;22.50;96.90;;;;;;5022115;28;20223;-82
2022/07/29 00:42:44;;;;;;;2.75;2.55;;;22.50;97.60;;;;;;5033376;28;20247;-82
2022/07/29 00:45:12;;;;;;;9.43;2.90;;;22.40;97.10;;;;;;5032906;28;20297;-77
2022/07/29 00:47:41;;;;;;;4.82;2.90;;;22.40;97.10;;;;;;5032666;28;20293;-77
2022/07/29 00:50:11;;;;;;;3.55;3.22;;;22.40;97.50;;;;;;5032133;28;20298;-78
2022/07/29 00:52:42;;;;;;;5.32;3.05;;;22.30;97.80;;;;;;5032317;28;20234;-77
2022/07/29 00:55:13;;;;;;;3.67;3.38;;;22.30;98.10;;;;;;5032555;28;20209;-78
2022/07/29 00:57:42;;;;;;;3.33;3.08;;;22.30;98.10;;;;;;5032173;28;20210;-78
2022/07/29 01:00:17;;;;;;;3.53;2.92;;;22.20;98.00;;;;;;5032741;28;20211;-78
2022/07/29 01:02:47;;;;;;;2.97;2.67;;;22.20;98.50;;;;;;5032296;28;20268;-78
2022/07/29 01:05:19;;;;;;;3.00;2.72;;;22.20;98.40;;;;;;5032213;28;20268;-70
2022/07/29 01:07:51;;;;;;;4.15;2.90;;;22.10;98.90;;;;;;5032665;28;20279;-71
2022/07/29 01:10:22;;;;;;;3.17;2.88;;;22.20;99.80;;;;;;5033050;28;20210;-71
2022/07/29 01:12:52;;;;;;;2.63;2.42;;;22.10;99.60;;;;;;5032360;28;20240;-71
2022/07/29 01:15:21;;;;;;;2.72;2.53;;;22.10;99.70;;;;;;5032111;28;20207;-70
2022/07/29 01:17:58;;;;;;;2.60;2.40;;;22.10;99.80;;;;;;5013983;28;20203;-71
2022/07/29 01:20:38;;;;;;;4.05;3.17;;;22.10;99.80;;;;;;5035762;28;20285;-79
2022/07/29 01:23:32;;;;;;;3.00;2.80;;;22.10;99.50;;;;;;5027212;28;20218;-79
2022/07/29 01:26:28;;;;;;;3.33;3.05;;;22.10;99.40;;;;;;5033994;28;20257;-80
2022/07/29 01:29:19;;;;;;;3.42;3.20;;;22.10;99.20;;;;;;5034430;28;20201;-79
2022/07/29 01:31:55;;;;;;;2.92;2.63;;;22.10;99.50;;;;;;5034280;28;20210;-80
2022/07/29 01:34:32;;;;;;;4.13;3.20;;;22.10;99.70;;;;;;5050848;23;20227;-81
2022/07/29 01:37:08;;;;;;;3.10;2.85;;;22.00;99.90;;;;;;5015480;28;20238;-82
2022/07/29 01:39:39;;;;;;;9.32;3.78;;;22.00;99.90;;;;;;5016465;28;20210;-82
2022/07/29 01:42:13;;;;;;;3.25;2.95;;;22.00;99.90;;;;;;5015864;28;20286;-82
2022/07/29 01:44:53;;;;;;;5.10;3.08;;;21.90;99.90;;;;;;5015735;28;20232;-82
2022/07/29 01:47:26;;;;;;;3.65;3.22;;;21.80;99.90;;;;;;5016542;28;20210;-82
2022/07/29 01:49:57;;;;;;;2.78;2.58;;;21.80;99.90;;;;;;5016025;28;20211;-82
2022/07/29 01:52:32;;;;;;;3.13;2.90;;;21.70;99.90;;;;;;5016350;28;20262;-82
2022/07/29 01:55:05;;;;;;;3.40;3.15;;;21.70;99.90;;;;;;5016549;28;20314;-82
2022/07/29 01:57:36;;;;;;;3.55;3.25;;;21.70;99.90;;;;;;5016913;28;20211;-82
2022/07/29 02:00:08;;;;;;;4.55;3.25;;;21.60;99.90;;;;;;5016302;28;20208;-82
2022/07/29 02:02:40;;;;;;;3.15;2.95;;;21.60;99.90;;;;;;5016266;28;20234;-82
2022/07/29 02:05:11;;;;;;;4.40;2.80;;;21.60;99.90;;;;;;5015529;28;20306;-82
2022/07/29 02:07:42;;;;;;;9.73;2.92;;;21.60;99.90;;;;;;5016570;28;20206;-82
2022/07/29 02:10:13;;;;;;;2.90;2.70;;;21.60;99.90;;;;;;5015915;28;20290;-82
2022/07/29 02:12:43;;;;;;;3.10;2.88;;;21.60;99.90;;;;;;5015548;28;20301;-82
2022/07/29 02:15:20;;;;;;;3.13;2.92;;;21.60;99.90;;;;;;5014567;28;20227;-83
2022/07/29 02:17:55;;;;;;;4.72;3.75;;;21.50;99.90;;;;;;5014940;28;20291;-82
2022/07/29 02:20:25;;;;;;;3.28;3.08;;;21.50;99.90;;;;;;5025079;28;20213;-83
2022/07/29 02:22:55;;;;;;;3.17;2.92;;;21.50;99.90;;;;;;5015440;28;20203;-82
2022/07/29 02:25:25;;;;;;;4.68;2.97;;;21.60;99.90;;;;;;5014117;28;20315;-82
2022/07/29 02:28:06;;;;;;;3.58;3.22;;;21.60;99.90;;;;;;5013429;28;20257;-82
2022/07/29 02:30:41;;;;;;;5.65;3.17;;;21.60;99.90;;;;;;5013484;28;20203;-82
2022/07/29 02:33:10;;;;;;;3.42;3.13;;;21.50;99.90;;;;;;5013854;28;20228;-82
2022/07/29 02:35:41;;;;;;;5.13;3.40;;;21.50;99.90;;;;;;5013865;28;20239;-81
2022/07/29 02:41:00;;;;;;;3.33;3.05;;;21.20;99.90;;;;;;5013699;28;20299;-81
2022/07/29 02:43:31;;;;;;;3.55;3.20;;;21.10;99.90;;;;;;5014065;28;20286;-82
2022/07/29 02:46:03;;;;;;;4.93;3.55;;;21.00;99.90;;;;;;5013800;28;20227;-82
2022/07/29 02:48:44;;;;;;;3.40;3.10;;;21.00;99.90;;;;;;5013337;28;20276;-81
2022/07/29 02:51:19;;;;;;;2.80;2.60;;;20.90;99.90;;;;;;5013373;28;20222;-81
2022/07/29 02:54:10;;;;;;;3.00;2.80;;;20.90;99.90;;;;;;5013304;28;20227;-81
2022/07/29 02:56:40;;;;;;;3.65;3.35;;;20.90;99.90;;;;;;5014031;28;20207;-81
2022/07/29 02:59:12;;;;;;;4.07;3.67;;;20.90;99.90;;;;;;5013765;28;20285;-81
2022/07/29 03:01:44;;;;;;;3.38;3.10;;;20.90;99.90;;;;;;5013478;28;20203;-81
2022/07/29 03:04:15;;;;;;;5.00;3.92;;;20.80;99.90;;;;;;5013016;28;20222;-81
2022/07/29 03:06:45;;;;;;;5.22;3.60;;;20.80;99.90;;;;;;5014104;28;20213;-81
2022/07/29 03:09:15;;;;;;;3.45;3.15;;;20.80;99.90;;;;;;5013988;28;20207;-81
2022/07/29 03:11:44;;;;;;;3.80;3.45;;;20.80;99.90;;;;;;5013768;28;20207;-82
2022/07/29 03:14:19;;;;;;;3.47;3.17;;;20.70;99.90;;;;;;5013529;28;20250;-83
2022/07/29 03:16:51;;;;;;;4.18;3.75;;;20.70;99.90;;;;;;5013275;28;20215;-82
2022/07/29 03:19:20;;;;;;;4.03;3.50;;;20.70;99.90;;;;;;5013385;28;20207;-82
2022/07/29 03:21:49;;;;;;;5.60;3.28;;;20.60;99.90;;;;;;5012962;28;20211;-82
2022/07/29 03:24:28;;;;;;;3.80;3.50;;;20.60;99.90;;;;;;5013093;28;20250;-82
2022/07/29 03:26:57;;;;;;;4.80;3.58;;;20.60;99.90;;;;;;5012973;28;20289;-82
2022/07/29 03:29:26;;;;;;;3.83;3.42;;;20.50;99.90;;;;;;5013772;28;20253;-82
2022/07/29 03:32:04;;;;;;;3.95;3.65;;;20.50;99.90;;;;;;5016592;28;20206;-82
2022/07/29 03:34:36;;;;;;;5.15;3.83;;;20.50;99.90;;;;;;5017361;28;20265;-82
2022/07/29 03:37:05;;;;;;;4.28;3.90;;;20.50;99.90;;;;;;5017191;28;20219;-82
2022/07/29 03:39:39;;;;;;;3.47;3.17;;;20.50;99.90;;;;;;5017511;28;20203;-82
2022/07/29 03:42:09;;;;;;;4.43;3.80;;;20.40;99.90;;;;;;5017075;28;20215;-83
2022/07/29 03:44:39;;;;;;;3.88;3.55;;;20.40;99.90;;;;;;5016987;28;20306;-83
2022/07/29 03:47:10;;;;;;;3.25;2.97;;;20.30;99.90;;;;;;5016813;28;20237;-83
2022/07/29 03:49:41;;;;;;;6.85;3.85;;;20.40;99.90;;;;;;5024870;28;20218;-83
2022/07/29 03:52:09;;;;;;;3.50;3.17;;;20.30;99.90;;;;;;5020508;28;20222;-83
2022/07/29 03:54:38;;;;;;;3.85;3.50;;;20.30;99.90;;;;;;5017825;28;20286;-82
2022/07/29 03:57:08;;;;;;;4.05;3.75;;;20.30;99.90;;;;;;5016923;28;20290;-83
2022/07/29 03:59:37;;;;;;;3.45;3.22;;;20.30;99.90;;;;;;5016297;28;20313;-83
2022/07/29 04:02:09;;;;;;;5.28;3.50;;;20.30;99.90;;;;;;5016234;28;20207;-83
2022/07/29 04:04:39;;;;;;;3.40;3.10;;;20.30;99.90;;;;;;5016393;28;20227;-84
2022/07/29 04:07:07;;;;;;;4.10;3.72;;;20.30;99.90;;;;;;5016196;28;20207;-83
2022/07/29 04:09:35;;;;;;;3.47;3.17;;;20.30;99.90;;;;;;5015754;28;20211;-82
2022/07/29 04:12:04;;;;;;;4.40;4.00;;;20.30;99.90;;;;;;5015562;28;20266;-82
2022/07/29 04:14:33;;;;;;;4.00;3.70;;;20.30;99.90;;;;;;5015657;28;20231;-83
2022/07/29 04:17:03;;;;;;;5.03;3.38;;;20.30;99.90;;;;;;5015845;28;20295;-83
2022/07/29 04:19:32;;;;;;;4.55;4.15;;;20.40;99.90;;;;;;5015890;28;20242;-83
2022/07/29 04:22:02;;;;;;;3.30;3.03;;;20.40;99.90;;;;;;5016087;28;20271;-83
2022/07/29 04:24:30;;;;;;;20.58;4.43;;;20.40;99.90;;;;;;5016751;28;20227;-82
2022/07/29 04:26:59;;;;;;;4.47;4.07;;;20.40;99.90;;;;;;5017247;28;20203;-82
2022/07/29 04:29:27;;;;;;;3.53;3.22;;;20.50;99.90;;;;;;5017386;28;20274;-83
2022/07/29 04:31:55;;;;;;;3.97;3.67;;;20.50;99.90;;;;;;5017105;28;20263;-82
2022/07/29 04:34:23;;;;;;;4.57;4.18;;;20.50;99.90;;;;;;5016102;28;20305;-82
2022/07/29 04:36:55;;;;;;;4.28;3.88;;;20.60;99.90;;;;;;5016016;28;20223;-82
2022/07/29 04:39:25;;;;;;;4.30;3.90;;;20.60;99.90;;;;;;5015502;28;20207;-82
2022/07/29 04:41:57;;;;;;;4.10;3.80;;;20.60;99.90;;;;;;5015049;28;20218;-82
2022/07/29 04:44:26;;;;;;;4.68;4.25;;;20.70;99.90;;;;;;5015384;28;20234;-84
2022/07/29 04:46:56;;;;;;;4.25;3.92;;;20.70;99.90;;;;;;5015475;28;20203;-83
2022/07/29 04:49:24;;;;;;;3.97;3.67;;;20.80;99.90;;;;;;5015201;28;20279;-83
2022/07/29 04:51:53;;;;;;;9.23;4.05;;;20.80;99.90;;;;;;5016649;28;20226;-84
2022/07/29 04:54:21;;;;;;;4.30;4.00;;;20.80;99.90;;;;;;5015740;28;20310;-83
2022/07/29 04:56:51;;;;;;;4.60;4.03;;;20.80;99.90;;;;;;5015269;28;20288;-83
2022/07/29 04:59:19;;;;;;;4.55;4.15;;;20.80;99.90;;;;;;5015055;28;20238;-84
2022/07/29 05:01:47;;;;;;;4.22;3.90;;;20.80;99.90;;;;;;5015167;28;20238;-80
2022/07/29 05:04:16;;;;;;;8.50;4.03;;;20.90;99.90;;;;;;5014952;28;20223;-79
2022/07/29 05:06:45;;;;;;;4.55;4.15;;;20.90;99.90;;;;;;5015075;28;20210;-79
2022/07/29 05:09:13;;;;;;;9.07;3.72;;;20.90;99.90;;;;;;5009239;28;20191;-78
2022/07/29 05:11:42;;;;;;;3.40;3.15;;;20.90;99.90;;;;;;5004000;28;20196;-78
2022/07/29 05:14:12;;;;;;;6.88;4.35;;;20.90;99.90;;;;;;5003216;28;20223;-78
2022/07/29 05:16:41;;;;;;;5.15;4.50;;;20.90;99.90;;;;;;5000274;28;20234;-78
2022/07/29 05:19:10;;;;;;;4.45;3.90;;;21.00;99.90;;;;;;5005936;28;20254;-78
2022/07/29 05:21:41;;;;;;;3.70;3.40;;;21.00;99.90;;;;;;5000290;28;20235;-78
2022/07/29 05:24:10;;;;;;;3.65;3.35;;;21.10;99.90;;;;;;4995010;28;20314;-78
2022/07/29 05:26:38;;;;;;;4.13;3.70;;;21.20;99.90;;;;;;4994163;28;20242;-78
2022/07/29 05:29:07;;;;;;;5.63;4.05;;;21.30;99.90;;;;;;4994548;28;20294;-77
2022/07/29 05:31:56;;;;;;;4.10;3.72;;;21.30;99.90;;;;;;4994960;28;20208;-78
2022/07/29 05:34:25;;;;;;;4.65;3.65;;;21.50;99.90;;;;;;4994520;28;20276;-78
2022/07/29 05:36:53;;;;;;;4.45;3.88;;;21.50;99.90;;;;;;4994886;28;20231;-78
2022/07/29 05:39:21;;;;;;;5.28;4.03;;;21.60;99.90;;;;;;4994591;28;20295;-79
2022/07/29 05:42:10;;;;;;;3.47;3.17;;;21.60;99.90;;;;;;4994845;28;20215;-78
2022/07/29 05:44:39;;;;;;;6.20;3.97;;;21.70;99.90;;;;;;4994843;28;20311;-79
2022/07/29 05:47:08;;;;;;;5.38;4.28;;;21.70;99.90;;;;;;4994735;28;20263;-78
2022/07/29 05:49:37;;;;;;;3.72;3.42;;;21.80;99.90;;;;;;5005444;28;20282;-79
2022/07/29 05:52:05;;;;;;;4.07;3.67;;;21.90;99.90;;;;;;5014272;28;20282;-78
2022/07/29 05:54:35;;;;;;;4.57;4.18;;;21.90;99.90;;;;;;5011183;28;20230;-78
2022/07/29 05:57:03;;;;;;;4.30;3.90;;;22.00;99.90;;;;;;5010487;28;20211;-78
2022/07/29 05:59:32;;;;;;;7.50;4.22;;;22.10;99.90;;;;;;5013529;28;20282;-78
2022/07/29 06:02:00;;;;;;;9.48;4.00;;;22.10;99.90;;;;;;5013512;28;20207;-78
2022/07/29 06:04:30;;;;;;;4.18;3.78;;;22.20;99.90;;;;;;5013844;28;20219;-78
2022/07/29 06:06:58;;;;;;;4.50;3.47;;;22.30;99.90;;;;;;5010291;28;20206;-78
2022/07/29 06:09:26;;;;;;;6.72;4.25;;;22.40;99.90;;;;;;4996019;28;20204;-78
2022/07/29 06:11:57;;;;;;;8.25;3.85;;;22.60;99.90;;;;;;5013626;28;20203;-78
2022/07/29 06:14:26;;;;;;;7.25;3.75;;;22.80;99.90;;;;;;5009984;28;20215;-78
2022/07/29 06:16:54;;;;;;;4.63;3.78;;;22.90;99.90;;;;;;5013736;28;20219;-78
2022/07/29 06:19:22;;;;;;;4.10;3.70;;;23.00;99.90;;;;;;5012998;28;20207;-79
2022/07/29 06:21:52;;;;;;;3.85;3.28;;;23.00;99.90;;;;;;5013766;28;20214;-79
2022/07/29 06:24:20;;;;;;;4.15;3.75;;;23.10;99.90;;;;;;5013125;28;20315;-79
2022/07/29 06:26:48;;;;;;;3.53;3.28;;;23.20;99.90;;;;;;5013363;28;20213;-79
2022/07/29 06:29:17;;;;;;;4.65;4.05;;;23.30;99.90;;;;;;5012983;28;20207;-79
2022/07/29 06:31:45;;;;;;;3.78;3.35;;;23.50;99.90;;;;;;5013498;28;20290;-79
2022/07/29 06:34:13;;;;;;;4.43;4.10;;;23.50;99.90;;;;;;5012828;28;20231;-78
2022/07/29 06:36:42;;;;;;;4.15;3.85;;;23.60;99.90;;;;;;5013716;28;20309;-79
2022/07/29 06:39:12;;;;;;;4.63;3.63;;;23.70;99.90;;;;;;5013614;28;20294;-78
2022/07/29 06:41:40;;;;;;;3.53;3.33;;;23.90;99.90;;;;;;5013933;28;20199;-78
2022/07/29 06:44:08;;;;;;;3.78;3.47;;;23.90;99.90;;;;;;5013773;28;20223;-78
2022/07/29 06:46:37;;;;;;;3.83;3.55;;;24.10;99.90;;;;;;5013593;28;20215;-78
2022/07/29 06:49:05;;;;;;;6.68;3.60;;;24.20;99.90;;;;;;5013487;28;20205;-78
2022/07/29 06:51:34;;;;;;;4.25;3.85;;;24.30;99.90;;;;;;5013944;28;20198;-78
2022/07/29 06:54:05;;;;;;;3.70;3.40;;;24.30;99.90;;;;;;5013654;28;20235;-78
2022/07/29 06:56:37;;;;;;;3.83;3.42;;;24.20;99.90;;;;;;5013269;28;20250;-78
2022/07/29 06:59:09;;;;;;;3.85;3.53;;;24.20;99.90;;;;;;5013933;28;20215;-79
2022/07/29 07:01:38;;;;;;;3.38;3.08;;;24.20;99.90;;;;;;5013655;28;20233;-78
2022/07/29 07:04:08;;;;;;;4.10;3.70;;;24.20;99.90;;;;;;5013604;28;20311;-79
2022/07/29 07:06:37;;;;;;;3.72;3.42;;;24.10;99.90;;;;;;5013394;28;20230;-78
2022/07/29 07:09:05;;;;;;;3.28;2.97;;;24.00;99.90;;;;;;5013378;28;20209;-78
2022/07/29 07:11:35;;;;;;;4.30;3.90;;;24.00;99.90;;;;;;5013580;28;20210;-78
2022/07/29 07:14:42;;;;;;;7.72;4.00;;;24.00;99.90;;;;;;5013267;28;20302;-79
2022/07/29 07:17:10;;;;;;;3.35;3.15;;;23.90;99.90;;;;;;5013268;28;20290;-80
2022/07/29 07:19:39;;;;;;;3.97;3.60;;;23.90;99.90;;;;;;5013335;28;20289;-79
2022/07/29 07:22:07;;;;;;;5.10;4.20;;;23.90;99.90;;;;;;5013330;28;20207;-79
2022/07/29 07:24:35;;;;;;;3.83;3.53;;;24.00;99.90;;;;;;5013416;28;20237;-79
2022/07/29 07:27:05;;;;;;;4.35;3.45;;;24.00;99.90;;;;;;5013695;28;20199;-79
2022/07/29 07:29:33;;;;;;;4.22;3.35;;;24.00;99.90;;;;;;5013107;28;20302;-79
2022/07/29 07:32:02;;;;;;;3.55;3.28;;;24.10;99.90;;;;;;5012899;28;20202;-79
2022/07/29 07:34:31;;;;;;;3.85;2.80;;;24.20;99.90;;;;;;5013134;28;20318;-79
2022/07/29 07:36:59;;;;;;;18.85;4.05;;;24.30;99.90;;;;;;5013121;28;20251;-78
2022/07/29 07:39:27;;;;;;;2.97;2.78;;;24.50;99.90;;;;;;5046753;22;20324;-74
2022/07/29 07:41:55;;;;;;;8.07;4.05;;;24.70;99.90;;;;;;5073067;28;20201;-75
2022/07/29 07:44:25;;;;;;;3.95;3.63;;;24.90;99.90;;;;;;5072134;28;20281;-75
2022/07/29 07:46:53;;;;;;;3.70;3.05;;;24.80;99.90;;;;;;5072303;28;20201;-73
2022/07/29 07:49:21;;;;;;;4.32;3.92;;;24.90;99.90;;;;;;5072393;28;20217;-74
2022/07/29 07:51:50;;;;;;;3.67;3.38;;;25.10;99.90;;;;;;5072588;28;20201;-74
2022/07/29 07:54:18;;;;;;;3.15;2.85;;;25.20;99.90;;;;;;5072817;28;20284;-74
2022/07/29 07:56:49;;;;;;;4.25;3.88;;;25.30;99.90;;;;;;5072395;28;20213;-73
2022/07/29 07:59:20;;;;;;;4.57;3.10;;;25.40;99.90;;;;;;5071808;28;20221;-75
2022/07/29 08:01:50;;;;;;;3.65;3.35;;;25.30;99.90;;;;;;5072774;28;20292;-75
2022/07/29 08:04:24;;;;;;;4.25;3.55;;;25.40;99.90;;;;;;5072735;28;20258;-75
2022/07/29 08:06:56;;;;;;;4.57;4.28;;;25.50;99.90;;;;;;5072447;28;20198;-75
2022/07/29 08:09:25;;;;;;;3.70;3.28;;;25.80;99.90;;;;;;5072777;28;20240;-75
2022/07/29 08:11:58;;;;;;;4.25;3.67;;;26.10;99.90;;;;;;5072059;28;20233;-75
2022/07/29 08:14:27;;;;;;;4.30;4.00;;;26.30;99.90;;;;;;5072613;28;20288;-75
2022/07/29 08:16:57;;;;;;;6.25;4.32;;;26.50;99.90;;;;;;5072519;28;20243;-75
2022/07/29 08:19:25;;;;;;;7.45;3.33;;;26.60;99.90;;;;;;5076001;28;20252;-75
2022/07/29 08:21:54;;;;;;;3.70;3.40;;;26.80;99.90;;;;;;5076166;28;20200;-75
2022/07/29 08:27:09;;;;;;;3.95;3.50;;;27.30;99.90;;;;;;5075902;28;20280;-75
2022/07/29 08:29:57;;;;;;;3.10;2.90;;;28.10;99.90;;;;;;5075213;28;20221;-75
2022/07/29 08:32:28;;;;;;;3.58;3.28;;;29.10;99.90;;;;;;5076325;28;20233;-75
2022/07/29 08:35:16;;;;;;;3.33;3.13;;;29.40;99.80;;;;;;5075381;28;20197;-75
2022/07/29 08:37:44;;;;;;;3.40;3.10;;;29.90;99.90;;;;;;5069157;28;20243;-76
2022/07/29 08:40:13;;;;;;;4.30;3.15;;;30.30;99.90;;;;;;5075807;28;20307;-76
2022/07/29 08:42:42;;;;;;;3.70;3.40;;;30.50;96.80;;;;;;5075511;28;20231;-83
2022/07/29 08:45:11;;;;;;;4.13;3.80;;;30.40;99.00;;;;;;5075326;28;20255;-75
2022/07/29 08:47:41;;;;;;;3.22;3.03;;;30.80;96.80;;;;;;5075883;28;20264;-79
2022/07/29 08:50:11;;;;;;;3.05;2.85;;;31.10;95.20;;;;;;5075360;28;20248;-80
2022/07/29 08:52:41;;;;;;;3.58;3.28;;;31.30;96.20;;;;;;5075235;28;20215;-79
2022/07/29 08:55:11;;;;;;;4.43;3.55;;;31.40;93.20;;;;;;5075235;28;20205;-79
2022/07/29 08:57:40;;;;;;;4.45;3.67;;;31.30;92.60;;;;;;5075618;28;20229;-79
2022/07/29 09:00:23;;;;;;;3.50;2.95;;;30.80;92.80;;;;;;5075234;28;20213;-79
2022/07/29 09:02:58;;;;;;;3.25;2.95;;;30.20;93.80;;;;;;5075876;28;20212;-79
2022/07/29 09:05:28;;;;;;;11.50;3.45;;;29.60;93.90;;;;;;5074546;28;20276;-79
2022/07/29 09:08:07;;;;;;;2.97;2.67;;;29.30;95.90;;;;;;5067001;28;20202;-79
2022/07/29 09:10:53;;;;;;;4.18;2.63;;;29.30;96.40;;;;;;5057652;28;20232;-79
2022/07/29 09:13:22;;;;;;;3.00;2.80;;;29.30;95.40;;;;;;5075407;28;20208;-80
2022/07/29 09:15:51;;;;;;;3.05;2.80;;;29.40;94.90;;;;;;5075149;28;20201;-79
2022/07/29 09:24:03;;;;;;;2.50;2.40;;;31.00;94.70;;;;;;5152757;27;20202;-79
2022/07/29 09:26:34;;;;;;;3.20;2.95;;;31.60;95.40;;;;;;5152136;27;20201;-80
2022/07/29 09:29:10;;;;;;;2.90;2.70;;;31.90;93.80;;;;;;5151169;27;20197;-79
2022/07/29 09:31:41;;;;;;;3.60;2.90;;;32.30;92.40;;;;;;5131524;27;20202;-80
2022/07/29 09:34:11;;;;;;;2.88;2.67;;;32.90;90.20;;;;;;5149157;27;20201;-80
2022/07/29 09:36:46;;;;;;;3.15;2.95;;;33.30;90.30;;;;;;5152246;27;20194;-82
2022/07/29 09:39:16;;;;;;;3.60;3.00;;;33.40;87.10;;;;;;5130916;27;20226;-83
2022/07/29 09:41:47;;;;;;;5.38;2.63;;;33.90;88.50;;;;;;5146842;27;20194;-82
2022/07/29 09:44:16;;;;;;;2.47;2.33;;;33.90;84.70;;;;;;5149340;27;20194;-83
2022/07/29 09:46:58;;;;;;;4.30;2.80;;;33.60;84.10;;;;;;5151220;27;20198;-83
2022/07/29 09:49:27;;;;;;;4.35;3.15;;;33.10;91.20;;;;;;5151502;27;20218;-80
2022/07/29 09:52:08;;;;;;;2.80;2.60;;;32.90;92.10;;;;;;5152065;27;20198;-80
2022/07/29 09:54:40;;;;;;;3.50;3.20;;;32.30;88.00;;;;;;5151717;27;20243;-83
2022/07/29 09:57:12;;;;;;;3.30;3.00;;;31.70;86.20;;;;;;5151434;27;20213;-83
2022/07/29 09:59:56;;;;;;;2.92;2.72;;;31.40;87.40;;;;;;5151033;27;20218;-83
2022/07/29 10:02:30;;;;;;;2.75;2.55;;;31.00;88.30;;;;;;5151461;27;20217;-83
2022/07/29 10:05:00;;;;;;;2.78;2.58;;;30.70;90.00;;;;;;5151036;27;20255;-83
2022/07/29 10:07:45;;;;;;;2.78;2.58;;;30.50;89.20;;;;;;5151143;27;20209;-83
2022/07/29 10:10:24;;;;;;;3.75;3.45;;;30.60;91.50;;;;;;5150553;27;20240;-83
2022/07/29 10:12:55;;;;;;;4.85;3.55;;;31.50;91.80;;;;;;5150760;27;20204;-83
2022/07/29 10:15:26;;;;;;;4.72;3.58;;;32.20;90.80;;;;;;5150551;27;20202;-83
2022/07/29 10:17:56;;;;;;;3.45;3.25;;;32.80;86.60;;;;;;5150206;27;20206;-83
2022/07/29 10:20:26;;;;;;;3.72;3.42;;;33.20;87.20;;;;;;5148727;27;20218;-83
2022/07/29 10:22:56;;;;;;;4.00;3.70;;;33.00;86.60;;;;;;5150792;27;20205;-83
2022/07/29 10:25:26;;;;;;;3.85;3.55;;;33.20;89.20;;;;;;5150750;27;20208;-83
2022/07/29 10:27:55;;;;;;;3.60;3.30;;;33.60;86.00;;;;;;5150482;27;20190;-82
2022/07/29 10:30:32;;;;;;;4.00;3.42;;;34.20;85.80;;;;;;5149343;27;20274;-76
2022/07/29 10:33:29;;;;;;;3.33;3.10;;;35.00;83.10;;;;;;5118079;27;20195;-80
2022/07/29 10:36:08;;;;;;;6.22;4.25;;;35.70;83.10;;;;;;5097437;27;20201;-75
2022/07/29 10:38:50;;;;;;;6.22;4.20;;;36.10;80.20;;;;;;5136897;27;20191;-86
2022/07/29 10:41:54;;;;;;;3.53;3.22;;;36.40;84.30;;;;;;5136454;27;20233;-86
2022/07/29 10:44:24;;;;;;;4.40;3.28;;;36.70;83.10;;;;;;5121238;27;20194;-85
2022/07/29 10:46:54;;;;;;;4.85;3.80;;;37.10;79.70;;;;;;5136669;27;20198;-85
2022/07/29 10:49:24;;;;;;;3.65;3.15;;;36.90;77.40;;;;;;5135653;27;20305;-85
2022/07/29 10:52:05;;;;;;;3.53;3.22;;;36.60;79.30;;;;;;5136447;27;20229;-84
2022/07/29 10:54:47;;;;;;;3.10;2.80;;;36.10;79.40;;;;;;5124862;27;20221;-84
2022/07/29 10:57:21;;;;;;;2.88;2.65;;;35.30;76.50;;;;;;5136989;27;20199;-84
2022/07/29 11:00:32;;;;;;;3.35;3.05;;;34.90;80.20;;;;;;5136624;27;20211;-83
2022/07/29 11:03:01;;;;;;;3.22;3.03;;;34.40;79.40;;;;;;5136844;27;20198;-84
2022/07/29 11:05:56;;;;;;;4.22;3.47;;;34.20;83.10;;;;;;5134869;27;20191;-83
2022/07/29 11:08:27;;;;;;;4.50;3.58;;;34.20;81.80;;;;;;5136539;27;20254;-84
2022/07/29 11:15:01;;;;;;;3.83;3.50;;;33.90;80.90;;;;;;5121169;27;20194;-85
2022/07/29 11:17:29;;;;;;;3.13;2.92;;;34.00;81.50;;;;;;5115720;28;20265;-84
2022/07/29 11:20:39;;;;;;;3.22;2.65;;;34.10;83.60;;;;;;5115231;28;20234;-84
2022/07/29 11:23:25;;;;;;;2.80;2.60;;;34.60;82.30;;;;;;5115734;28;20202;-84
2022/07/29 11:26:14;;;;;;;3.92;2.83;;;34.90;81.20;;;;;;5115429;28;20222;-83
2022/07/29 11:29:07;;;;;;;2.83;2.63;;;34.30;75.10;;;;;;5115403;28;20214;-84
2022/07/29 11:31:41;;;;;;;2.90;2.70;;;34.00;79.80;;;;;;5131495;27;20250;-83
2022/07/29 11:34:24;;;;;;;2.80;2.60;;;33.50;78.10;;;;;;5135821;27;20228;-83
2022/07/29 11:37:29;;;;;;;2.95;2.75;;;33.20;80.20;;;;;;5117586;27;20274;-82
2022/07/29 11:40:16;;;;;;;3.47;3.17;;;33.00;81.10;;;;;;5033229;28;20229;-84
2022/07/29 11:42:49;;;;;;;3.47;3.17;;;33.30;82.70;;;;;;5032215;28;20214;-84
2022/07/29 11:45:28;;;;;;;4.15;3.72;;;33.40;76.60;;;;;;5097272;27;20202;-84
2022/07/29 11:48:19;;;;;;;3.40;3.10;;;33.90;79.50;;;;;;5135873;27;20205;-84
2022/07/29 11:51:00;;;;;;;4.00;3.15;;;34.30;77.80;;;;;;5135518;27;20222;-83
2022/07/29 11:53:30;;;;;;;3.30;3.10;;;34.90;74.80;;;;;;5135467;27;20201;-81
2022/07/29 11:56:01;;;;;;;2.90;2.70;;;35.50;78.90;;;;;;5133527;27;20190;-81
2022/07/29 11:58:50;;;;;;;3.00;2.67;;;36.00;76.20;;;;;;5134938;27;20198;-84
2022/07/29 12:01:21;;;;;;;2.88;2.63;;;36.60;77.10;;;;;;5135134;27;20223;-82
2022/07/29 12:04:04;;;;;;;3.40;3.20;;;36.90;72.70;;;;;;5134794;27;20221;-82
2022/07/29 12:06:34;;;;;;;3.15;2.75;;;37.10;69.00;;;;;;5134616;27;20202;-82
2022/07/29 12:09:08;;;;;;;6.32;3.10;;;37.10;70.10;;;;;;5134946;27;20335;-82
2022/07/29 12:11:41;;;;;;;2.72;2.53;;;37.00;71.70;;;;;;5135151;27;20214;-82
2022/07/29 12:14:26;;;;;;;3.17;2.75;;;37.10;71.20;;;;;;5132948;27;20226;-82
2022/07/29 12:16:55;;;;;;;2.78;2.58;;;36.80;72.70;;;;;;5134375;27;20202;-82
2022/07/29 12:19:24;;;;;;;2.85;2.65;;;36.80;71.20;;;;;;5113706;28;20238;-82
2022/07/29 12:21:54;;;;;;;4.07;3.20;;;36.80;69.90;;;;;;5116971;27;20252;-82
2022/07/29 12:24:26;;;;;;;3.30;3.00;;;36.70;70.70;;;;;;5114155;28;20203;-82
2022/07/29 12:26:56;;;;;;;3.53;3.22;;;36.80;71.60;;;;;;5113584;28;20199;-82
2022/07/29 12:29:26;;;;;;;4.13;3.03;;;36.90;71.30;;;;;;5113958;28;20223;-82
2022/07/29 12:32:03;;;;;;;3.25;3.05;;;36.80;70.40;;;;;;5114122;28;20222;-82
2022/07/29 12:34:34;;;;;;;5.47;3.00;;;36.50;67.90;;;;;;5113785;28;20258;-90
2022/07/29 12:37:04;;;;;;;3.45;3.15;;;36.00;70.40;;;;;;5116130;27;20191;-90
2022/07/29 12:39:33;;;;;;;3.67;3.38;;;35.40;71.80;;;;;;5134172;27;20226;-83
2022/07/29 12:42:12;;;;;;;3.10;2.90;;;35.00;73.60;;;;;;5123140;27;20191;-84
2022/07/29 12:44:50;;;;;;;3.38;3.17;;;34.70;74.80;;;;;;5123175;27;20198;-84
2022/07/29 12:47:19;;;;;;;4.22;3.08;;;34.30;75.00;;;;;;5131156;27;20201;-84
2022/07/29 12:49:50;;;;;;;3.58;3.30;;;34.10;75.70;;;;;;5132842;27;20218;-85
2022/07/29 12:52:26;;;;;;;3.88;3.45;;;33.90;74.10;;;;;;5132974;27;20219;-84
2022/07/29 12:54:54;;;;;;;3.55;3.25;;;33.50;75.30;;;;;;5133052;27;20202;-84
2022/07/29 12:57:23;;;;;;;6.15;3.60;;;33.10;75.20;;;;;;5133018;27;20203;-84
2022/07/29 13:00:07;;;;;;;4.80;3.17;;;32.80;77.30;;;;;;5132715;27;20223;-84
2022/07/29 13:02:36;;;;;;;3.65;3.33;;;32.50;76.60;;;;;;5133001;27;20210;-84
2022/07/29 13:05:08;;;;;;;4.03;2.97;;;32.30;79.10;;;;;;5133169;27;20206;-85
2022/07/29 13:07:37;;;;;;;3.10;2.80;;;32.10;78.00;;;;;;5133186;27;20209;-84
2022/07/29 13:10:24;;;;;;;3.30;3.00;;;32.00;78.20;;;;;;5132919;27;20302;-84
2022/07/29 13:13:09;;;;;;;2.92;2.72;;;31.80;79.80;;;;;;5132529;27;20223;-84
2022/07/29 13:15:39;;;;;;;4.03;3.67;;;31.50;78.10;;;;;;5132967;27;20226;-84
2022/07/29 13:18:28;;;;;;;3.08;2.88;;;31.10;78.70;;;;;;5132962;27;20218;-84
2022/07/29 13:20:58;;;;;;;3.65;3.20;;;30.70;79.30;;;;;;5132756;27;20318;-84
2022/07/29 13:23:27;;;;;;;3.55;3.08;;;30.20;81.00;;;;;;5132602;27;20251;-84
2022/07/29 13:25:55;;;;;;;4.05;3.75;;;29.70;83.00;;;;;;5133031;28;20259;-84
2022/07/29 13:28:23;;;;;;;3.65;3.35;;;29.50;82.90;;;;;;5132488;27;20195;-84
2022/07/29 13:30:52;;;;;;;4.82;3.20;;;29.20;83.90;;;;;;5120172;27;20299;-84